Detall de PIREP

Printer-friendly versionPDF version

[2013/03/09 08:19:00]
Flight IATA:CT3307
Pilot Number:012
Company ICAO:CAT
Aircraft Type:A320/E
PAX:150
Departing Airport: HECA
Destination Airport: LEZG
Alternate Airport:LEBL
Online: VATSIM
Route:MENKU/M078F340 A1 METRU UL81 LORNO UM729 CDC UQ182 MALAV/M078F350 UM601 BCN UN725 LOBAR
Flight Level:F360
No Slew and time accel
No pause
Crash detect
Detect pilot in Cockpit between each 30 and 45 minutes
08:19 Zero fuel Weight: 120301 Lbs, Fuel Weight: 31329 Lbs
08:19 VATSIM:HECA 090800Z 34005KT 9999 FEW025 18/12 Q1015 NOSIG
08:19 VATSIM:LEZG 090800Z 07005KT 030V120 9999 FEW040 10/06 Q1006
08:20 VOICE CATALONIAN
08:21 Parking Brakes off
08:29 Take-off
08:29 Take off Weight: 150563 Lbs
08:29 Wind: 337º @ 005 Knots Heading: 048º
08:29 POS N30º 06´ 46´´ E031º 24´ 56´´
08:29 Flaps:3 at 171 Knots
08:29 Gear Up: 173 Knots
08:29 Flaps:2 at 193 Knots
08:29 Flaps:1 at 200 Knots
08:30 Flaps:0 at 227 Knots
08:44 Wind:286º@053 Knots Heading: 306º Ground Speed: 415 Knots Altitude 31233 ft
08:54 TOC
08:54 Fuel Weight: 25319 Lb
08:59 Wind:282º@069 Knots Heading: 301º Ground Speed: 395 Knots Altitude 36046 ft
09:14 Wind:286º@074 Knots Heading: 301º Ground Speed: 388 Knots Altitude 36062 ft
09:29 Wind:296º@071 Knots Heading: 302º Ground Speed: 385 Knots Altitude 35938 ft
09:44 Wind:292º@063 Knots Heading: 303º Ground Speed: 394 Knots Altitude 35944 ft
09:59 Wind:294º@068 Knots Heading: 302º Ground Speed: 387 Knots Altitude 35921 ft
10:14 Wind:300º@059 Knots Heading: 303º Ground Speed: 396 Knots Altitude 35912 ft
10:29 Wind:293º@082 Knots Heading: 302º Ground Speed: 374 Knots Altitude 35898 ft
10:44 Wind:293º@089 Knots Heading: 301º Ground Speed: 366 Knots Altitude 35872 ft
10:59 Wind:292º@091 Knots Heading: 289º Ground Speed: 362 Knots Altitude 35902 ft
11:14 Wind:285º@092 Knots Heading: 290º Ground Speed: 360 Knots Altitude 35902 ft
11:29 Wind:279º@090 Knots Heading: 288º Ground Speed: 362 Knots Altitude 35826 ft
11:44 Wind:270º@087 Knots Heading: 286º Ground Speed: 367 Knots Altitude 36784 ft
11:59 Wind:268º@088 Knots Heading: 272º Ground Speed: 363 Knots Altitude 36797 ft
12:14 Wind:262º@080 Knots Heading: 270º Ground Speed: 373 Knots Altitude 36732 ft
12:29 Wind:255º@088 Knots Heading: 273º Ground Speed: 364 Knots Altitude 36771 ft
12:44 Wind:253º@089 Knots Heading: 284º Ground Speed: 377 Knots Altitude 36758 ft
12:48 TOD
12:48 Fuel Weight: 5146 Lb
12:59 Wind:243º@030 Knots Heading: 282º Ground Speed: 300 Knots Altitude 13966 ft
13:10 Flaps:1 at 193 Knots
13:11 Flaps:3 at 181 Knots
13:11 Gear Down: 165 Knots
13:12 Flaps:4 at 162 Knots
13:14 Wind:244º@010 Knots Heading: 296º Ground Speed: 135 Knots Altitude 1187 ft
13:14 Flaps:5 at 138 Knots
13:14 TouchDown:Rate -179 ft/min Speed: 129 Knots
13:14 VATSIM:LEZG 091300Z 30009KT 260V340 9999 SCT060 16/05 Q1006
13:14 Land
13:14 Wind:246º@011 Knots
13:14 Heading: 301º
13:14 Flight Duration: 04:45
13:14 Landing Weight: 123506 Lbs
13:14 POS N41º 39´ 41´´ W001º 01´ 21´´
13:17 Parking brakes on
13:17 Block to Block Duration: 04:56
13:17 Final Fuel: 2998 Lbls
13:17 Spent Fuel: 28331 Lbls
13:17 Flight Length: 1740 NM
13:17 TOD Land Length: 119 NM

Exportar CSV

Powered by Drupal - Modified by Danger4k